Terminal Aerodrome Forecast
Issued by NWS Caribou, ME

Home | Current Version | Previous Version | Text Only | Print | Product List | Glossary On
Versions: 1 2 3 4 5 6 7 8 9 10 11 12 13 14 15 16 17 18 19 20 21 22 23
000
FTUS41 KCAR 181413 AAA
TAFCAR
TAF AMD
KCAR 181413Z 1814/1912 30008KT P6SM BKN015
     FM181600 28006KT P6SM SCT035
     FM182300 VRB03KT P6SM SCT035 BKN070
     FM190600 13008KT 5SM -FZRASN OVC030
     FM190800 12009KT 3SM -RASN OVC015
     FM191000 12009KT 3SM -RA BR OVC008=

USA.gov is the U.S. government's official web portal to all federal, state and local government web resources and services.